createdAt,value
2022-08-09T00:00:00.630Z,1019.55
2022-08-09T00:00:53.230Z,1019.54
2022-08-09T00:01:54.663Z,1019.57
2022-08-09T00:02:53.443Z,1019.56
2022-08-09T00:06:16.019Z,1019.57
2022-08-09T00:06:53.346Z,1019.57
2022-08-09T00:07:54.380Z,1019.54
2022-08-09T00:08:57.532Z,1019.52
2022-08-09T00:10:54.483Z,1019.51
2022-08-09T00:12:03.855Z,1019.53
2022-08-09T00:12:53.729Z,1019.53
2022-08-09T00:13:54.261Z,1019.50
2022-08-09T00:14:55.921Z,1019.50
2022-08-09T00:15:59.583Z,1019.47
2022-08-09T00:16:53.644Z,1019.49
2022-08-09T00:18:53.690Z,1019.46
2022-08-09T00:19:54.648Z,1019.45
2022-08-09T00:20:53.763Z,1019.47
2022-08-09T00:21:55.832Z,1019.48
2022-08-09T00:22:54.222Z,1019.50
2022-08-09T00:23:59.639Z,1019.44
2022-08-09T00:24:54.063Z,1019.48
2022-08-09T00:25:54.210Z,1019.44
2022-08-09T00:28:53.991Z,1019.47
2022-08-09T00:30:24.496Z,1019.48
2022-08-09T00:30:54.364Z,1019.42
2022-08-09T00:31:59.777Z,1019.44
2022-08-09T00:32:54.124Z,1019.44
2022-08-09T00:33:54.132Z,1019.43
2022-08-09T00:34:54.566Z,1019.42
2022-08-09T00:35:54.498Z,1019.41
2022-08-09T00:36:54.220Z,1019.40
2022-08-09T00:37:54.959Z,1019.39
2022-08-09T00:38:54.585Z,1019.41
2022-08-09T00:40:14.161Z,1019.36
2022-08-09T00:40:54.661Z,1019.42
2022-08-09T00:44:10.493Z,1019.38
2022-08-09T00:44:13.638Z,1019.41
2022-08-09T00:44:14.882Z,1019.37
2022-08-09T00:44:54.449Z,1019.39
2022-08-09T00:45:54.478Z,1019.41
2022-08-09T00:46:57.771Z,1019.39
2022-08-09T00:47:55.367Z,1019.39
2022-08-09T00:50:55.317Z,1019.37
2022-08-09T00:52:54.686Z,1019.43
2022-08-09T00:54:55.651Z,1019.45
2022-08-09T00:56:04.880Z,1019.48
2022-08-09T00:58:55.655Z,1019.54
2022-08-09T00:59:55.287Z,1019.53
2022-08-09T01:00:55.138Z,1019.51
2022-08-09T01:01:54.972Z,1019.54
2022-08-09T01:02:54.947Z,1019.57
2022-08-09T01:03:56.801Z,1019.55
2022-08-09T01:04:55.004Z,1019.60
2022-08-09T01:05:55.047Z,1019.58
2022-08-09T01:06:55.738Z,1019.58
2022-08-09T01:08:00.208Z,1019.60
2022-08-09T01:08:55.129Z,1019.60
2022-08-09T01:09:55.161Z,1019.59
2022-08-09T01:10:55.187Z,1019.59
2022-08-09T01:11:56.518Z,1019.57
2022-08-09T01:12:55.954Z,1019.53
2022-08-09T01:14:55.288Z,1019.60
2022-08-09T01:15:55.348Z,1019.57
2022-08-09T01:16:55.357Z,1019.57
2022-08-09T01:17:57.655Z,1019.58
2022-08-09T01:19:01.645Z,1019.53
2022-08-09T01:20:02.444Z,1019.58
2022-08-09T01:20:55.473Z,1019.61
2022-08-09T01:21:55.488Z,1019.60
2022-08-09T01:22:55.528Z,1019.58
2022-08-09T01:24:03.495Z,1019.58
2022-08-09T01:24:56.781Z,1019.59
2022-08-09T01:25:55.644Z,1019.59
2022-08-09T01:26:55.630Z,1019.58
2022-08-09T01:29:48.641Z,1019.56
2022-08-09T01:30:51.169Z,1019.57
2022-08-09T01:32:29.719Z,1019.58
2022-08-09T01:32:38.379Z,1019.58
2022-08-09T01:33:38.565Z,1019.54
2022-08-09T01:35:39.178Z,1019.54
2022-08-09T01:36:38.445Z,1019.55
2022-08-09T01:37:43.117Z,1019.56
2022-08-09T01:38:38.704Z,1019.56
2022-08-09T01:39:39.061Z,1019.54
2022-08-09T01:41:38.788Z,1019.60
2022-08-09T01:42:38.607Z,1019.57
2022-08-09T01:43:50.506Z,1019.57
2022-08-09T01:44:38.686Z,1019.56
2022-08-09T01:45:46.058Z,1019.57
2022-08-09T01:46:41.560Z,1019.52
2022-08-09T02:04:45.395Z,1019.51
2022-08-09T02:06:39.298Z,1019.50
2022-08-09T02:08:35.960Z,1019.53
2022-08-09T02:09:42.134Z,1019.53
2022-08-09T02:18:42.814Z,1019.53
2022-08-09T02:19:43.281Z,1019.54
2022-08-09T02:20:39.893Z,1019.53
2022-08-09T02:23:13.147Z,1019.51
2022-08-09T02:23:43.595Z,1019.54
2022-08-09T02:25:42.402Z,1019.54
2022-08-09T02:26:39.842Z,1019.56
2022-08-09T02:27:57.952Z,1019.59
2022-08-09T02:28:39.898Z,1019.55
2022-08-09T02:29:39.925Z,1019.60
2022-08-09T02:30:41.395Z,1019.57
2022-08-09T02:31:39.980Z,1019.56
2022-08-09T02:32:40.005Z,1019.56
2022-08-09T02:34:06.543Z,1019.57
2022-08-09T02:34:52.002Z,1019.59
2022-08-09T02:36:01.342Z,1019.60
2022-08-09T02:36:42.032Z,1019.54
2022-08-09T02:37:40.147Z,1019.59
2022-08-09T02:38:40.174Z,1019.58
2022-08-09T02:39:44.520Z,1019.56
2022-08-09T02:40:40.261Z,1019.55
2022-08-09T02:41:40.262Z,1019.57
2022-08-09T02:43:54.316Z,1019.51
2022-08-09T02:48:40.457Z,1019.52
2022-08-09T02:49:41.412Z,1019.52
2022-08-09T02:50:40.519Z,1019.46
2022-08-09T02:51:40.878Z,1019.49
2022-08-09T02:52:40.571Z,1019.49
2022-08-09T02:53:43.178Z,1019.45
2022-08-09T02:54:54.469Z,1019.46
2022-08-09T02:55:57.495Z,1019.46
2022-08-09T02:56:41.897Z,1019.49
2022-08-09T02:58:32.373Z,1019.47
2022-08-09T02:58:40.743Z,1019.43
2022-08-09T02:59:40.765Z,1019.44
2022-08-09T03:00:58.069Z,1019.41
2022-08-09T03:01:58.520Z,1019.44
2022-08-09T03:04:41.322Z,1019.41
2022-08-09T03:05:40.949Z,1019.43
2022-08-09T03:07:41.003Z,1019.44
2022-08-09T03:08:41.240Z,1019.44
2022-08-09T03:10:41.803Z,1019.47
2022-08-09T03:12:06.396Z,1019.44
2022-08-09T03:16:47.726Z,1019.46
2022-08-09T03:17:41.487Z,1019.47
2022-08-09T03:19:59.278Z,1019.52
2022-08-09T03:23:41.660Z,1019.57
2022-08-09T03:25:58.092Z,1019.60
2022-08-09T03:26:45.068Z,1019.59
2022-08-09T03:40:42.239Z,1019.58
2022-08-09T04:02:44.950Z,1019.85
2022-08-09T04:14:36.914Z,1019.91
2022-08-09T04:15:00.809Z,1019.92
2022-08-09T04:16:30.458Z,1019.89
2022-08-09T04:22:30.784Z,1019.94
2022-08-09T04:23:30.652Z,1020.00
2022-08-09T04:24:30.679Z,1020.02
2022-08-09T04:25:30.709Z,1020.02
2022-08-09T04:26:38.061Z,1020.01
2022-08-09T04:27:30.762Z,1020.00
2022-08-09T04:28:35.907Z,1020.02
2022-08-09T04:29:30.818Z,1020.02
2022-08-09T04:30:30.847Z,1020.03
2022-08-09T04:31:37.374Z,1020.02
2022-08-09T04:32:34.097Z,1020.06
2022-08-09T04:33:30.930Z,1020.05
2022-08-09T04:34:32.029Z,1020.01
2022-08-09T04:35:32.783Z,1020.06
2022-08-09T04:38:31.071Z,1020.08
2022-08-09T04:39:31.457Z,1020.05
2022-08-09T04:40:36.144Z,1020.11
2022-08-09T04:41:32.891Z,1020.08
2022-08-09T04:47:45.129Z,1020.15
2022-08-09T04:49:14.875Z,1020.16
2022-08-09T04:54:14.037Z,1020.18
2022-08-09T04:56:14.307Z,1020.14
2022-08-09T04:58:14.158Z,1020.18
2022-08-09T04:59:15.668Z,1020.16
2022-08-09T05:00:14.416Z,1020.16
2022-08-09T05:01:16.379Z,1020.14
2022-08-09T05:02:14.271Z,1020.18
2022-08-09T05:03:40.362Z,1020.22
2022-08-09T05:05:14.358Z,1020.23
2022-08-09T05:06:21.810Z,1020.23
2022-08-09T05:08:15.083Z,1020.22
2022-08-09T05:09:14.469Z,1020.20
2022-08-09T05:10:15.309Z,1020.26
2022-08-09T05:11:14.935Z,1020.21
2022-08-09T05:13:14.781Z,1020.20
2022-08-09T05:15:38.372Z,1020.19
2022-08-09T05:18:50.601Z,1020.22
2022-08-09T05:20:15.489Z,1020.16
2022-08-09T05:21:22.921Z,1020.19
2022-08-09T05:22:33.458Z,1020.18
2022-08-09T05:26:16.031Z,1020.17
2022-08-09T05:27:14.977Z,1020.13
2022-08-09T05:29:17.352Z,1020.13
2022-08-09T05:31:15.305Z,1020.15
2022-08-09T05:32:15.319Z,1020.22
2022-08-09T05:33:15.859Z,1020.20
2022-08-09T05:36:15.621Z,1020.21
2022-08-09T05:37:15.584Z,1020.27
2022-08-09T05:39:28.529Z,1020.29
2022-08-09T05:40:15.818Z,1020.30
2022-08-09T05:41:15.408Z,1020.29
2022-08-09T05:42:17.840Z,1020.29
2022-08-09T05:44:15.666Z,1020.34
2022-08-09T05:46:15.515Z,1020.33
2022-08-09T05:47:15.560Z,1020.29
2022-08-09T05:50:09.099Z,1020.31
2022-08-09T05:50:30.249Z,1020.32
2022-08-09T05:51:29.767Z,1020.28
2022-08-09T05:54:17.997Z,1020.34
2022-08-09T05:55:20.834Z,1020.32
2022-08-09T05:56:16.328Z,1020.33
2022-08-09T05:58:18.330Z,1020.30
2022-08-09T05:59:16.295Z,1020.31
2022-08-09T06:00:15.920Z,1020.28
2022-08-09T06:02:16.948Z,1020.35
2022-08-09T06:03:19.813Z,1020.38
2022-08-09T06:04:16.260Z,1020.38
2022-08-09T06:05:16.411Z,1020.40
2022-08-09T06:07:21.644Z,1020.43
2022-08-09T06:08:19.618Z,1020.39
2022-08-09T06:09:40.417Z,1020.49
2022-08-09T06:10:18.073Z,1020.49
2022-08-09T06:11:17.755Z,1020.43
2022-08-09T06:12:16.474Z,1020.48
2022-08-09T06:13:20.419Z,1020.46
2022-08-09T06:14:16.321Z,1020.50
2022-08-09T06:15:16.349Z,1020.52
2022-08-09T06:16:16.583Z,1020.50
2022-08-09T06:17:16.419Z,1020.53
2022-08-09T06:19:14.038Z,1020.58
2022-08-09T06:20:14.058Z,1020.56
2022-08-09T06:21:16.217Z,1020.52
2022-08-09T06:22:15.448Z,1020.55
2022-08-09T06:23:15.552Z,1020.59
2022-08-09T06:24:14.505Z,1020.58
2022-08-09T06:25:16.342Z,1020.60
2022-08-09T06:26:14.248Z,1020.59
2022-08-09T06:27:15.442Z,1020.64
2022-08-09T06:28:14.314Z,1020.57
2022-08-09T06:29:15.028Z,1020.69
2022-08-09T06:30:16.026Z,1020.67
2022-08-09T06:31:15.020Z,1020.67
2022-08-09T06:32:53.379Z,1020.69
2022-08-09T06:33:40.224Z,1020.72
2022-08-09T06:34:18.352Z,1020.67
2022-08-09T06:35:14.547Z,1020.66
2022-08-09T06:36:14.586Z,1020.70
2022-08-09T06:37:14.618Z,1020.74
2022-08-09T06:38:15.973Z,1020.70
2022-08-09T06:39:14.978Z,1020.72
2022-08-09T06:41:18.871Z,1020.70
2022-08-09T06:42:14.798Z,1020.72
2022-08-09T06:43:14.844Z,1020.76
2022-08-09T06:44:18.065Z,1020.69
2022-08-09T06:46:07.541Z,1020.72
2022-08-09T06:46:40.132Z,1020.70
2022-08-09T06:47:15.004Z,1020.68
2022-08-09T06:48:16.651Z,1020.69
2022-08-09T06:50:19.005Z,1020.72
2022-08-09T06:51:15.128Z,1020.76
2022-08-09T06:52:15.833Z,1020.79
2022-08-09T06:53:15.207Z,1020.78
2022-08-09T06:54:15.244Z,1020.81
2022-08-09T06:55:15.293Z,1020.80
2022-08-09T06:56:15.320Z,1020.83
2022-08-09T06:57:15.760Z,1020.86
2022-08-09T06:58:40.841Z,1020.77
2022-08-09T07:02:16.795Z,1020.87
2022-08-09T07:04:19.996Z,1020.92
2022-08-09T07:09:54.955Z,1020.89
2022-08-09T07:10:24.977Z,1020.90
2022-08-09T07:11:25.628Z,1020.92
2022-08-09T07:12:38.607Z,1020.85
2022-08-09T07:13:29.366Z,1020.88
2022-08-09T07:14:26.455Z,1020.90
2022-08-09T07:16:36.169Z,1020.87
2022-08-09T07:16:41.532Z,1020.90
2022-08-09T07:17:25.246Z,1020.95
2022-08-09T07:18:25.284Z,1020.91
2022-08-09T07:19:25.324Z,1020.96
2022-08-09T07:20:25.365Z,1020.92
2022-08-09T07:21:25.409Z,1020.95
2022-08-09T07:22:27.429Z,1020.95
2022-08-09T07:23:25.496Z,1020.90
2022-08-09T07:24:32.246Z,1020.90
2022-08-09T07:25:25.573Z,1020.92
2022-08-09T07:26:25.608Z,1020.90
2022-08-09T07:27:27.009Z,1020.92
2022-08-09T07:28:28.090Z,1020.90
2022-08-09T07:29:25.730Z,1020.92
2022-08-09T07:30:28.816Z,1020.91
2022-08-09T07:31:25.812Z,1020.88
2022-08-09T07:32:32.030Z,1020.87
2022-08-09T07:33:25.892Z,1020.88
2022-08-09T07:34:25.935Z,1020.90
2022-08-09T07:35:25.975Z,1020.86
2022-08-09T07:36:26.017Z,1020.85
2022-08-09T07:37:26.052Z,1020.85
2022-08-09T07:38:26.098Z,1020.88
2022-08-09T07:39:40.326Z,1020.88
2022-08-09T07:40:27.015Z,1020.85
2022-08-09T07:41:26.288Z,1020.86
2022-08-09T07:42:32.379Z,1020.80
2022-08-09T07:43:29.106Z,1020.82
2022-08-09T07:44:32.840Z,1020.81
2022-08-09T07:45:39.328Z,1020.85
2022-08-09T07:46:27.678Z,1020.81
2022-08-09T07:47:26.543Z,1020.80
2022-08-09T07:48:29.991Z,1020.81
2022-08-09T07:49:26.550Z,1020.85
2022-08-09T07:50:35.001Z,1020.86
2022-08-09T07:52:04.588Z,1020.84
2022-08-09T07:52:26.677Z,1020.84
2022-08-09T07:54:04.340Z,1020.83
2022-08-09T07:54:28.267Z,1020.83
2022-08-09T07:55:28.673Z,1020.84
2022-08-09T07:56:27.428Z,1020.84
2022-08-09T07:57:33.886Z,1020.86
2022-08-09T07:58:26.976Z,1020.87
2022-08-09T07:59:34.279Z,1020.85
2022-08-09T08:00:36.658Z,1020.83
2022-08-09T08:01:33.023Z,1020.84
2022-08-09T08:02:27.311Z,1020.82
2022-08-09T08:03:27.130Z,1020.81
2022-08-09T08:04:31.577Z,1020.85
2022-08-09T08:05:28.021Z,1020.80
2022-08-09T08:06:32.100Z,1020.86
2022-08-09T08:08:06.305Z,1020.85
2022-08-09T08:09:01.779Z,1020.83
2022-08-09T08:09:38.629Z,1020.83
2022-08-09T08:10:27.486Z,1020.88
2022-08-09T08:12:24.303Z,1020.85
2022-08-09T08:12:29.362Z,1020.84
2022-08-09T08:13:27.544Z,1020.82
2022-08-09T08:14:27.603Z,1020.82
2022-08-09T08:15:27.629Z,1020.86
2022-08-09T08:16:31.997Z,1020.85
2022-08-09T08:17:52.184Z,1020.86
2022-08-09T08:18:27.754Z,1020.86
2022-08-09T08:19:31.133Z,1020.85
2022-08-09T08:20:30.511Z,1020.87
2022-08-09T08:21:27.879Z,1020.91
2022-08-09T08:22:28.653Z,1020.83
2022-08-09T08:23:27.967Z,1020.85
2022-08-09T08:24:34.273Z,1020.85
2022-08-09T08:25:40.076Z,1020.89
2022-08-09T08:26:54.659Z,1020.90
2022-08-09T08:27:28.129Z,1020.92
2022-08-09T08:28:32.938Z,1020.91
2022-08-09T08:29:28.607Z,1020.88
2022-08-09T08:30:28.256Z,1020.91
2022-08-09T08:32:02.214Z,1020.89
2022-08-09T08:32:52.340Z,1020.88
2022-08-09T08:33:28.385Z,1020.92
2022-08-09T08:34:28.443Z,1020.89
2022-08-09T08:35:53.141Z,1020.84
2022-08-09T08:36:30.610Z,1020.86
2022-08-09T08:37:40.768Z,1020.87
2022-08-09T08:38:28.602Z,1020.85
2022-08-09T08:39:28.808Z,1020.84
2022-08-09T08:40:29.673Z,1020.82
2022-08-09T08:41:50.226Z,1020.86
2022-08-09T08:42:31.756Z,1020.88
2022-08-09T08:43:28.802Z,1020.91
2022-08-09T08:44:29.692Z,1020.87
2022-08-09T08:45:37.513Z,1020.86
2022-08-09T08:46:35.289Z,1020.86
2022-08-09T08:47:28.969Z,1020.86
2022-08-09T08:48:31.085Z,1020.84
2022-08-09T08:49:38.949Z,1020.87
2022-08-09T08:50:29.095Z,1020.82
2022-08-09T08:51:41.632Z,1020.80
2022-08-09T08:52:58.547Z,1020.81
2022-08-09T08:53:32.095Z,1020.83
2022-08-09T08:54:30.334Z,1020.82
2022-08-09T08:55:29.301Z,1020.80
2022-08-09T08:56:29.359Z,1020.79
2022-08-09T08:57:29.383Z,1020.75
2022-08-09T08:58:29.427Z,1020.71
2022-08-09T08:59:44.563Z,1020.78
2022-08-09T09:00:30.404Z,1020.74
2022-08-09T09:01:44.754Z,1020.72
2022-08-09T09:02:31.342Z,1020.72
2022-08-09T09:03:33.087Z,1020.78
2022-08-09T09:04:29.694Z,1020.79
2022-08-09T09:05:58.882Z,1020.80
2022-08-09T09:06:29.771Z,1020.77
2022-08-09T09:07:29.808Z,1020.77
2022-08-09T09:08:31.812Z,1020.78
2022-08-09T09:09:58.417Z,1020.81
2022-08-09T09:10:29.931Z,1020.82
2022-08-09T09:11:29.969Z,1020.79
2022-08-09T09:12:30.064Z,1020.73
2022-08-09T09:13:41.625Z,1020.79
2022-08-09T09:14:30.094Z,1020.84
2022-08-09T09:15:30.135Z,1020.81
2022-08-09T09:16:32.315Z,1020.80
2022-08-09T09:17:48.385Z,1020.79
2022-08-09T09:18:30.260Z,1020.87
2022-08-09T09:19:40.857Z,1020.89
2022-08-09T09:20:30.349Z,1020.89
2022-08-09T09:21:30.382Z,1020.86
2022-08-09T09:22:30.527Z,1020.84
2022-08-09T09:23:37.893Z,1020.84
2022-08-09T09:24:30.509Z,1020.86
2022-08-09T09:26:01.002Z,1020.83
2022-08-09T09:26:30.591Z,1020.83
2022-08-09T09:28:05.270Z,1020.81
2022-08-09T09:28:53.206Z,1020.83
2022-08-09T09:30:05.366Z,1020.84
2022-08-09T09:30:41.334Z,1020.85
2022-08-09T09:32:06.542Z,1020.79
2022-08-09T09:32:34.204Z,1020.76
2022-08-09T09:33:30.880Z,1020.77
2022-08-09T09:34:30.921Z,1020.79
2022-08-09T09:35:33.248Z,1020.80
2022-08-09T09:36:34.854Z,1020.78
2022-08-09T09:37:32.156Z,1020.78
2022-08-09T09:38:36.740Z,1020.77
2022-08-09T09:40:13.819Z,1020.74
2022-08-09T09:41:13.729Z,1020.73
2022-08-09T09:42:13.766Z,1020.75
2022-08-09T09:43:13.806Z,1020.75
2022-08-09T09:44:25.183Z,1020.69
2022-08-09T09:45:14.387Z,1020.71
2022-08-09T09:46:45.708Z,1020.70
2022-08-09T09:47:13.968Z,1020.71
2022-08-09T09:48:14.007Z,1020.66
2022-08-09T09:49:14.051Z,1020.65
2022-08-09T09:50:17.379Z,1020.65
2022-08-09T09:51:25.896Z,1020.60
2022-08-09T09:52:16.252Z,1020.63
2022-08-09T09:53:14.209Z,1020.67
2022-08-09T09:54:19.255Z,1020.66
2022-08-09T09:55:27.851Z,1020.66
2022-08-09T09:56:31.048Z,1020.69
2022-08-09T09:58:03.995Z,1020.62
2022-08-09T09:59:17.017Z,1020.68
2022-08-09T10:00:17.054Z,1020.61
2022-08-09T10:01:31.141Z,1020.59
2022-08-09T10:02:17.135Z,1020.58
2022-08-09T10:03:17.259Z,1020.55
2022-08-09T10:04:22.729Z,1020.51
2022-08-09T10:05:21.653Z,1020.52
2022-08-09T10:06:17.289Z,1020.52
2022-08-09T10:08:25.854Z,1020.50
2022-08-09T10:09:21.663Z,1020.52
2022-08-09T10:10:10.168Z,1020.53
2022-08-09T10:11:30.773Z,1020.48
2022-08-09T10:12:14.495Z,1020.54
2022-08-09T10:13:10.284Z,1020.47
2022-08-09T10:14:10.321Z,1020.49
2022-08-09T10:15:17.119Z,1020.47
2022-08-09T10:16:57.333Z,1020.44
2022-08-09T10:17:50.787Z,1020.40
2022-08-09T10:18:10.475Z,1020.40
2022-08-09T10:19:10.522Z,1020.40
2022-08-09T10:20:14.878Z,1020.41
2022-08-09T10:21:10.591Z,1020.37
2022-08-09T10:22:10.629Z,1020.36
2022-08-09T10:23:10.668Z,1020.37
2022-08-09T10:24:16.025Z,1020.35
2022-08-09T10:25:12.060Z,1020.34
2022-08-09T10:26:11.174Z,1020.35
2022-08-09T10:27:17.074Z,1020.33
2022-08-09T10:28:10.857Z,1020.40
2022-08-09T10:29:31.664Z,1020.39
2022-08-09T10:32:03.763Z,1020.38
2022-08-09T10:32:20.945Z,1020.32
2022-08-09T10:32:38.147Z,1020.32
2022-08-09T10:33:29.746Z,1020.27
2022-08-09T10:34:32.362Z,1020.30
2022-08-09T10:38:55.439Z,1020.28
2022-08-09T10:39:40.355Z,1020.34
2022-08-09T10:40:37.615Z,1020.32
2022-08-09T10:41:32.285Z,1020.35
2022-08-09T10:42:32.495Z,1020.31
2022-08-09T10:43:46.830Z,1020.36
2022-08-09T10:44:32.394Z,1020.35
2022-08-09T10:45:35.571Z,1020.32
2022-08-09T10:46:32.468Z,1020.33
2022-08-09T10:48:16.333Z,1020.28
2022-08-09T10:48:32.546Z,1020.26
2022-08-09T10:49:42.725Z,1020.26
2022-08-09T10:50:35.244Z,1020.25
2022-08-09T10:55:55.337Z,1020.16
2022-08-09T10:56:46.963Z,1020.12
2022-08-09T10:57:51.701Z,1020.12
2022-08-09T10:58:49.480Z,1020.15
2022-08-09T10:59:57.349Z,1020.13
2022-08-09T11:03:14.335Z,1020.16
2022-08-09T11:03:50.760Z,1020.10
2022-08-09T11:04:56.207Z,1020.16
2022-08-09T11:06:00.458Z,1020.16
2022-08-09T11:06:47.333Z,1020.15
2022-08-09T11:07:58.362Z,1020.08
2022-08-09T11:08:53.395Z,1020.07
2022-08-09T11:09:48.843Z,1020.09
2022-08-09T11:10:54.712Z,1020.08
2022-08-09T11:11:51.819Z,1020.11
2022-08-09T11:12:47.760Z,1020.12
2022-08-09T11:13:50.156Z,1020.08
2022-08-09T11:14:47.644Z,1020.03
2022-08-09T11:16:04.477Z,1020.10
2022-08-09T11:16:47.706Z,1020.08
2022-08-09T11:17:47.737Z,1020.06
2022-08-09T11:18:48.429Z,1020.04
2022-08-09T11:20:10.217Z,1020.05
2022-08-09T11:23:16.779Z,1020.03
2022-08-09T11:24:13.805Z,1019.95
2022-08-09T11:25:13.843Z,1019.97
2022-08-09T11:26:13.866Z,1020.06
2022-08-09T11:27:14.105Z,1020.04
2022-08-09T11:28:27.844Z,1020.00
2022-08-09T11:29:13.973Z,1019.98
2022-08-09T11:41:54.653Z,1019.89
2022-08-09T11:42:51.769Z,1019.86
2022-08-09T11:43:51.850Z,1019.90
2022-08-09T11:44:51.849Z,1019.83
2022-08-09T11:45:51.868Z,1019.89
2022-08-09T11:46:51.915Z,1019.88
2022-08-09T11:47:51.984Z,1019.85
2022-08-09T11:48:51.988Z,1019.87
2022-08-09T11:50:54.128Z,1019.93
2022-08-09T11:50:54.794Z,1019.86
2022-08-09T11:53:04.336Z,1019.89
2022-08-09T11:53:16.633Z,1019.89
2022-08-09T11:53:59.822Z,1019.88
2022-08-09T11:54:52.180Z,1019.90
2022-08-09T11:56:02.195Z,1019.88
2022-08-09T11:56:52.249Z,1019.89
2022-08-09T11:58:02.242Z,1019.80
2022-08-09T11:58:52.316Z,1019.81
2022-08-09T11:59:52.631Z,1019.81
2022-08-09T12:00:52.968Z,1019.80
2022-08-09T12:02:16.975Z,1019.71
2022-08-09T12:02:53.500Z,1019.75
2022-08-09T12:03:57.235Z,1019.72
2022-08-09T12:08:38.683Z,1019.65
2022-08-09T12:09:38.713Z,1019.76
2022-08-09T12:10:40.250Z,1019.79
2022-08-09T12:12:02.531Z,1019.81
2022-08-09T12:12:39.039Z,1019.73
2022-08-09T12:14:07.335Z,1019.74
2022-08-09T12:15:04.013Z,1019.70
2022-08-09T12:15:49.695Z,1019.67
2022-08-09T12:16:39.915Z,1019.62
2022-08-09T12:17:44.272Z,1019.65
2022-08-09T12:18:39.019Z,1019.63
2022-08-09T12:19:40.202Z,1019.58
2022-08-09T12:20:39.086Z,1019.64
2022-08-09T12:21:39.301Z,1019.57
2022-08-09T12:22:39.155Z,1019.58
2022-08-09T12:23:56.602Z,1019.58
2022-08-09T12:24:39.229Z,1019.56
2022-08-09T12:25:49.323Z,1019.55
2022-08-09T12:26:39.289Z,1019.52
2022-08-09T12:29:13.078Z,1019.55
2022-08-09T12:29:15.615Z,1019.49
2022-08-09T12:29:52.472Z,1019.49
2022-08-09T12:30:39.593Z,1019.43
2022-08-09T12:32:02.291Z,1019.47
2022-08-09T12:32:40.810Z,1019.49
2022-08-09T12:33:58.366Z,1019.49
2022-08-09T12:34:39.824Z,1019.42
2022-08-09T12:35:40.234Z,1019.44
2022-08-09T12:36:39.626Z,1019.46
2022-08-09T12:37:50.316Z,1019.44
2022-08-09T12:38:39.694Z,1019.38
2022-08-09T12:39:39.780Z,1019.52
2022-08-09T12:40:39.762Z,1019.42
2022-08-09T12:41:40.442Z,1019.43
2022-08-09T12:42:39.829Z,1019.46
2022-08-09T12:44:06.555Z,1019.46
2022-08-09T12:44:39.900Z,1019.48
2022-08-09T12:45:39.931Z,1019.52
2022-08-09T12:46:39.964Z,1019.47
2022-08-09T12:47:45.105Z,1019.47
2022-08-09T12:48:40.031Z,1019.46
2022-08-09T12:49:40.067Z,1019.47
2022-08-09T12:50:41.242Z,1019.33
2022-08-09T12:52:00.318Z,1019.52
2022-08-09T12:52:44.326Z,1019.46
2022-08-09T12:53:41.190Z,1019.44
2022-08-09T12:54:40.237Z,1019.40
2022-08-09T12:56:15.950Z,1019.37
2022-08-09T12:56:48.264Z,1019.36
2022-08-09T12:57:40.335Z,1019.39
2022-08-09T12:58:42.827Z,1019.38
2022-08-09T13:00:02.104Z,1019.38
2022-08-09T13:00:40.592Z,1019.35
2022-08-09T13:01:42.879Z,1019.34
2022-08-09T13:02:40.502Z,1019.34
2022-08-09T13:03:52.734Z,1019.38
2022-08-09T13:04:40.569Z,1019.35
2022-08-09T13:05:51.488Z,1019.32
2022-08-09T13:06:40.637Z,1019.36
2022-08-09T13:07:51.623Z,1019.32
2022-08-09T13:08:43.510Z,1019.31
2022-08-09T13:09:43.218Z,1019.31
2022-08-09T13:10:40.772Z,1019.35
2022-08-09T13:11:42.324Z,1019.34
2022-08-09T13:12:40.838Z,1019.26
2022-08-09T13:14:37.969Z,1019.29
2022-08-09T13:14:48.791Z,1019.27
2022-08-09T13:15:41.435Z,1019.27
2022-08-09T13:16:40.985Z,1019.23
2022-08-09T13:18:02.683Z,1019.18
2022-08-09T13:18:41.038Z,1019.16
2022-08-09T13:20:10.518Z,1019.22
2022-08-09T13:21:20.526Z,1019.20
2022-08-09T13:22:37.982Z,1019.18
2022-08-09T13:23:01.403Z,1019.14
2022-08-09T13:24:15.751Z,1019.21
2022-08-09T13:24:54.080Z,1019.19
2022-08-09T13:25:42.365Z,1019.17
2022-08-09T13:26:41.310Z,1019.15
2022-08-09T13:27:48.781Z,1019.12
2022-08-09T13:28:41.387Z,1019.14
2022-08-09T13:30:02.800Z,1019.15
2022-08-09T13:30:50.210Z,1019.12
2022-08-09T13:32:16.646Z,1019.06
2022-08-09T13:32:41.604Z,1019.06
2022-08-09T13:33:52.848Z,1019.09
2022-08-09T13:34:41.581Z,1019.04
2022-08-09T13:36:38.170Z,1019.04
2022-08-09T13:36:43.431Z,1019.01
2022-08-09T13:37:51.775Z,1019.02
2022-08-09T13:38:57.972Z,1018.97
2022-08-09T13:41:50.414Z,1019.00
2022-08-09T13:41:54.353Z,1019.04
2022-08-09T13:41:58.963Z,1018.98
2022-08-09T13:42:41.907Z,1018.93
2022-08-09T13:43:41.881Z,1018.90
2022-08-09T13:44:42.148Z,1018.94
2022-08-09T13:46:42.184Z,1018.97
2022-08-09T13:47:17.928Z,1018.95
2022-08-09T13:47:49.996Z,1018.91
2022-08-09T13:48:42.164Z,1018.85
2022-08-09T13:49:58.187Z,1018.80
2022-08-09T13:50:42.114Z,1018.80
2022-08-09T13:51:42.151Z,1018.78
2022-08-09T13:52:42.183Z,1018.75
2022-08-09T13:53:44.808Z,1018.73
2022-08-09T13:54:43.094Z,1018.73
2022-08-09T13:55:42.286Z,1018.76
2022-08-09T13:56:42.316Z,1018.76
2022-08-09T13:57:42.350Z,1018.82
2022-08-09T13:58:42.399Z,1018.75
2022-08-09T13:59:42.434Z,1018.73
2022-08-09T14:00:46.808Z,1018.66
2022-08-09T14:02:00.536Z,1018.72
2022-08-09T14:03:04.082Z,1018.68
2022-08-09T14:04:05.307Z,1018.70
2022-08-09T14:04:59.407Z,1018.71
2022-08-09T14:05:58.863Z,1018.71
2022-08-09T14:06:46.409Z,1018.72
2022-08-09T14:07:42.695Z,1018.73
2022-08-09T14:08:42.730Z,1018.75
2022-08-09T14:09:42.755Z,1018.77
2022-08-09T14:10:50.372Z,1018.76
2022-08-09T14:11:47.993Z,1018.76
2022-08-09T14:12:42.851Z,1018.76
2022-08-09T14:14:22.195Z,1018.77
2022-08-09T14:14:44.087Z,1018.75
2022-08-09T14:16:09.584Z,1018.79
2022-08-09T14:16:42.987Z,1018.80
2022-08-09T14:18:19.058Z,1018.79
2022-08-09T14:18:43.267Z,1018.77
2022-08-09T14:19:43.089Z,1018.79
2022-08-09T14:20:43.123Z,1018.77
2022-08-09T14:21:43.156Z,1018.74
2022-08-09T14:22:43.189Z,1018.73
2022-08-09T14:23:54.246Z,1018.70
2022-08-09T14:24:47.052Z,1018.78
2022-08-09T14:25:43.305Z,1018.72
2022-08-09T14:26:43.323Z,1018.77
2022-08-09T14:27:57.196Z,1018.83
2022-08-09T14:28:43.393Z,1018.81
2022-08-09T14:30:35.400Z,1018.76
2022-08-09T14:30:43.466Z,1018.70
2022-08-09T14:31:52.169Z,1018.73
2022-08-09T14:32:43.672Z,1018.70
2022-08-09T14:33:43.560Z,1018.72
2022-08-09T14:34:43.591Z,1018.71
2022-08-09T14:35:52.993Z,1018.70
2022-08-09T14:36:43.687Z,1018.69
2022-08-09T14:38:02.019Z,1018.69
2022-08-09T14:38:43.726Z,1018.68
2022-08-09T14:39:47.946Z,1018.62
2022-08-09T14:41:01.886Z,1018.64
2022-08-09T14:41:43.880Z,1018.70
2022-08-09T14:42:43.982Z,1018.64
2022-08-09T14:43:53.238Z,1018.63
2022-08-09T14:46:54.551Z,1018.63
2022-08-09T14:46:58.524Z,1018.62
2022-08-09T14:47:45.316Z,1018.57
2022-08-09T14:48:31.592Z,1018.59
2022-08-09T14:49:34.455Z,1018.60
2022-08-09T14:50:31.705Z,1018.64
2022-08-09T14:51:31.686Z,1018.56
2022-08-09T14:52:32.010Z,1018.59
2022-08-09T14:53:32.762Z,1018.60
2022-08-09T14:54:34.034Z,1018.56
2022-08-09T14:55:35.445Z,1018.56
2022-08-09T14:56:31.846Z,1018.54
2022-08-09T14:57:42.949Z,1018.64
2022-08-09T14:58:31.913Z,1018.56
2022-08-09T14:59:31.944Z,1018.54
2022-08-09T15:00:31.980Z,1018.53
2022-08-09T15:01:32.084Z,1018.52
2022-08-09T15:02:32.441Z,1018.60
2022-08-09T15:04:24.715Z,1018.54
2022-08-09T15:05:25.903Z,1018.48
2022-08-09T15:06:24.725Z,1018.50
2022-08-09T15:07:24.757Z,1018.54
2022-08-09T15:08:30.454Z,1018.65
2022-08-09T15:09:51.954Z,1018.62
2022-08-09T15:10:25.443Z,1018.64
2022-08-09T15:11:25.208Z,1018.62
2022-08-09T15:12:24.920Z,1018.65
2022-08-09T15:13:24.953Z,1018.63
2022-08-09T15:14:24.991Z,1018.65
2022-08-09T15:15:28.333Z,1018.64
2022-08-09T15:16:30.614Z,1018.56
2022-08-09T15:17:25.446Z,1018.59
2022-08-09T15:18:25.119Z,1018.55